Time,TemperatureF,DewpointF,PressureIn,WindDirection,WindDirectionDegrees,WindSpeedMPH,WindSpeedGustMPH,Humidity,HourlyPrecipIn,Conditions,Clouds,dailyrainin,SolarRadiationWatts/m^2,SoftwareType,DateUTC
2013-02-12 00:02:00,33.0,31.5,30.19,ENE,64,0.0,0.0,94,0.00,,,0.16,0,LWC V2.00 B727,2013-02-12 07:02:00,
2013-02-12 00:07:00,33.2,31.7,30.19,ENE,64,0.0,0.0,94,0.00,,,0.16,0,LWC V2.00 B727,2013-02-12 07:07:00,
2013-02-12 00:12:00,33.0,31.2,30.20,ENE,64,0.0,0.0,93,0.00,,,0.16,0,LWC V2.00 B727,2013-02-12 07:12:00,
2013-02-12 00:17:00,33.0,31.5,30.20,ENE,64,0.0,0.0,94,0.00,,,0.16,0,LWC V2.00 B727,2013-02-12 07:17:00,
2013-02-12 00:22:00,33.5,32.0,30.20,ENE,64,0.0,0.0,94,0.00,,,0.16,0,LWC V2.00 B727,2013-02-12 07:22:00,
2013-02-12 00:27:00,33.8,32.3,30.20,ENE,64,0.0,0.0,94,0.00,,,0.16,0,LWC V2.00 B727,2013-02-12 07:27:00,
2013-02-12 00:32:00,33.7,32.2,30.20,ENE,64,0.0,0.0,94,0.00,,,0.16,0,LWC V2.00 B727,2013-02-12 07:32:00,
2013-02-12 00:37:00,33.5,32.0,30.20,ENE,64,1.0,2.0,94,0.00,,,0.16,0,LWC V2.00 B727,2013-02-12 07:37:00,
2013-02-12 00:42:00,33.7,32.2,30.20,ENE,64,0.0,0.0,94,0.00,,,0.16,0,LWC V2.00 B727,2013-02-12 07:42:00,
2013-02-12 00:47:00,33.3,31.8,30.20,ENE,64,0.0,0.0,94,0.00,,,0.16,0,LWC V2.00 B727,2013-02-12 07:47:00,
2013-02-12 00:52:00,32.9,31.1,30.20,ENE,64,0.0,0.0,93,0.00,,,0.16,0,LWC V2.00 B727,2013-02-12 07:52:00,
2013-02-12 00:57:00,32.9,31.1,30.20,ENE,64,0.0,0.0,93,0.00,,,0.16,0,LWC V2.00 B727,2013-02-12 07:57:00,
2013-02-12 01:02:00,33.0,31.5,30.19,ENE,64,0.0,0.0,94,0.00,,,0.00,0,LWC V2.00 B727,2013-02-12 08:02:00,
2013-02-12 01:07:00,33.2,31.7,30.19,ENE,64,0.0,0.0,94,0.00,,,0.00,0,LWC V2.00 B727,2013-02-12 08:07:00,
2013-02-12 01:12:00,33.2,31.7,30.19,ENE,64,0.0,1.0,94,0.00,,,0.00,0,LWC V2.00 B727,2013-02-12 08:12:00,
2013-02-12 01:17:00,32.9,31.4,30.19,ENE,64,1.0,1.0,94,0.00,,,0.00,0,LWC V2.00 B727,2013-02-12 08:17:00,
2013-02-12 01:22:00,32.7,30.9,30.19,ENE,64,2.0,2.0,93,0.00,,,0.00,0,LWC V2.00 B727,2013-02-12 08:22:00,
2013-02-12 01:27:00,32.7,31.2,30.19,ENE,64,1.0,2.0,94,0.00,,,0.00,0,LWC V2.00 B727,2013-02-12 08:27:00,
2013-02-12 01:32:00,32.8,31.0,30.20,ENE,64,0.0,1.0,93,0.00,,,0.00,0,LWC V2.00 B727,2013-02-12 08:32:00,
2013-02-12 01:37:00,32.9,31.1,30.20,ENE,64,0.0,0.0,93,0.00,,,0.00,0,LWC V2.00 B727,2013-02-12 08:37:00,
2013-02-12 01:42:00,32.9,31.4,30.20,ENE,64,2.0,2.0,94,0.00,,,0.00,0,LWC V2.00 B727,2013-02-12 08:42:00,
2013-02-12 01:47:00,32.4,30.6,30.20,ENE,64,1.0,3.0,93,0.00,,,0.00,0,LWC V2.00 B727,2013-02-12 08:47:00,
2013-02-12 01:52:00,32.3,30.5,30.20,ENE,64,1.0,3.0,93,0.00,,,0.00,0,LWC V2.00 B727,2013-02-12 08:52:00,
2013-02-12 01:57:00,32.1,30.3,30.20,ENE,64,1.0,2.0,93,0.00,,,0.00,0,LWC V2.00 B727,2013-02-12 08:57:00,
2013-02-12 02:02:00,32.1,30.3,30.20,ENE,64,0.0,0.0,93,0.00,,,0.00,0,LWC V2.00 B727,2013-02-12 09:02:00,
2013-02-12 02:07:00,32.5,30.7,30.21,ENE,64,0.0,0.0,93,0.00,,,0.00,0,LWC V2.00 B727,2013-02-12 09:07:00,
2013-02-12 02:12:00,32.6,30.8,30.21,ENE,64,0.0,0.0,93,0.00,,,0.00,0,LWC V2.00 B727,2013-02-12 09:12:00,
2013-02-12 02:17:00,32.6,30.8,30.21,ENE,64,2.0,2.0,93,0.00,,,0.00,0,LWC V2.00 B727,2013-02-12 09:17:00,
2013-02-12 02:22:00,32.6,30.8,30.20,ENE,64,1.0,2.0,93,0.00,,,0.00,0,LWC V2.00 B727,2013-02-12 09:22:00,
2013-02-12 02:27:00,32.5,30.7,30.20,ENE,64,1.0,2.0,93,0.00,,,0.00,0,LWC V2.00 B727,2013-02-12 09:27:00,
2013-02-12 02:32:00,32.5,30.7,30.20,ENE,64,2.0,3.0,93,0.00,,,0.00,0,LWC V2.00 B727,2013-02-12 09:32:00,
2013-02-12 02:37:00,32.4,30.3,30.20,ENE,64,2.0,3.0,92,0.00,,,0.00,0,LWC V2.00 B727,2013-02-12 09:37:00,
2013-02-12 02:42:00,32.1,30.0,30.19,ENE,64,1.0,3.0,92,0.00,,,0.00,0,LWC V2.00 B727,2013-02-12 09:42:00,
2013-02-12 02:47:00,32.0,29.9,30.19,ENE,64,3.0,4.0,92,0.00,,,0.00,0,LWC V2.00 B727,2013-02-12 09:47:00,
2013-02-12 02:52:00,31.9,29.8,30.19,ENE,64,2.0,3.0,92,0.00,,,0.00,0,LWC V2.00 B727,2013-02-12 09:52:00,
2013-02-12 02:57:00,31.9,29.8,30.19,ENE,64,0.0,2.0,92,0.00,,,0.00,0,LWC V2.00 B727,2013-02-12 09:57:00,
2013-02-12 03:02:00,31.6,29.3,30.19,ENE,64,0.0,0.0,91,0.00,,,0.00,0,LWC V2.00 B727,2013-02-12 10:02:00,
2013-02-12 03:07:00,31.4,29.4,30.20,ENE,64,0.0,0.0,92,0.00,,,0.00,0,LWC V2.00 B727,2013-02-12 10:07:00,
2013-02-12 03:12:00,31.4,29.4,30.20,ENE,64,0.0,0.0,92,0.00,,,0.00,0,LWC V2.00 B727,2013-02-12 10:12:00,
2013-02-12 03:17:00,31.2,28.9,30.21,ENE,64,0.0,1.0,91,0.00,,,0.00,0,LWC V2.00 B727,2013-02-12 10:17:00,
2013-02-12 03:22:00,31.1,28.8,30.21,ENE,64,0.0,3.0,91,0.00,,,0.00,0,LWC V2.00 B727,2013-02-12 10:22:00,
2013-02-12 03:27:00,31.1,28.8,30.21,ENE,64,0.0,1.0,91,0.00,,,0.00,0,LWC V2.00 B727,2013-02-12 10:27:00,
2013-02-12 03:32:00,31.1,28.8,30.21,ENE,64,2.0,2.0,91,0.00,,,0.00,0,LWC V2.00 B727,2013-02-12 10:32:00,
2013-02-12 03:37:00,31.2,28.9,30.21,ENE,64,1.0,1.0,91,0.00,,,0.00,0,LWC V2.00 B727,2013-02-12 10:37:00,
2013-02-12 03:42:00,31.2,28.9,30.21,ENE,64,2.0,2.0,91,0.00,,,0.00,0,LWC V2.00 B727,2013-02-12 10:42:00,
2013-02-12 03:47:00,31.2,28.9,30.21,ENE,64,3.0,4.0,91,0.00,,,0.00,0,LWC V2.00 B727,2013-02-12 10:47:00,
2013-02-12 03:52:00,31.0,28.4,30.21,ENE,64,0.0,2.0,90,0.00,,,0.00,0,LWC V2.00 B727,2013-02-12 10:52:00,
2013-02-12 03:57:00,30.8,28.2,30.21,ENE,64,1.0,2.0,90,0.00,,,0.00,0,LWC V2.00 B727,2013-02-12 10:57:00,
2013-02-12 04:02:00,30.7,28.1,30.21,ENE,64,1.0,2.0,90,0.00,,,0.00,0,LWC V2.00 B727,2013-02-12 11:02:00,
2013-02-12 04:07:00,30.6,28.0,30.22,ENE,64,0.0,0.0,90,0.00,,,0.00,0,LWC V2.00 B727,2013-02-12 11:07:00,
2013-02-12 04:12:00,30.6,28.0,30.21,ENE,64,0.0,0.0,90,0.00,,,0.00,0,LWC V2.00 B727,2013-02-12 11:12:00,
2013-02-12 04:17:00,30.5,27.9,30.21,ENE,64,0.0,0.0,90,0.00,,,0.00,0,LWC V2.00 B727,2013-02-12 11:17:00,
2013-02-12 04:22:00,30.4,27.8,30.21,ENE,64,0.0,0.0,90,0.00,,,0.00,0,LWC V2.00 B727,2013-02-12 11:22:00,
2013-02-12 04:27:00,30.5,27.9,30.21,ENE,64,1.0,1.0,90,0.00,,,0.00,0,LWC V2.00 B727,2013-02-12 11:27:00,
2013-02-12 04:32:00,30.8,28.5,30.21,ENE,64,0.0,0.0,91,0.00,,,0.00,0,LWC V2.00 B727,2013-02-12 11:32:00,
2013-02-12 04:37:00,30.9,28.6,30.21,ENE,64,0.0,0.0,91,0.00,,,0.00,0,LWC V2.00 B727,2013-02-12 11:37:00,
2013-02-12 04:42:00,30.9,28.6,30.21,ENE,64,0.0,0.0,91,0.00,,,0.00,0,LWC V2.00 B727,2013-02-12 11:42:00,
2013-02-12 04:47:00,30.9,28.6,30.22,ENE,64,0.0,0.0,91,0.00,,,0.00,0,LWC V2.00 B727,2013-02-12 11:47:00,
2013-02-12 04:52:00,30.9,28.6,30.22,ENE,64,0.0,0.0,91,0.00,,,0.00,0,LWC V2.00 B727,2013-02-12 11:52:00,
2013-02-12 04:57:00,30.9,28.6,30.22,ENE,64,0.0,0.0,91,0.00,,,0.00,0,LWC V2.00 B727,2013-02-12 11:57:00,
2013-02-12 05:02:00,30.8,28.5,30.22,ENE,64,0.0,0.0,91,0.00,,,0.00,0,LWC V2.00 B727,2013-02-12 12:02:00,
2013-02-12 05:07:00,30.7,28.4,30.22,ENE,64,0.0,0.0,91,0.00,,,0.00,0,LWC V2.00 B727,2013-02-12 12:07:00,
2013-02-12 05:12:00,30.7,28.4,30.22,ENE,64,0.0,0.0,91,0.00,,,0.00,0,LWC V2.00 B727,2013-02-12 12:12:00,
2013-02-12 05:17:00,30.6,28.3,30.22,ENE,64,0.0,0.0,91,0.00,,,0.00,0,LWC V2.00 B727,2013-02-12 12:17:00,
2013-02-12 05:22:00,30.7,28.4,30.23,ENE,64,0.0,0.0,91,0.00,,,0.00,0,LWC V2.00 B727,2013-02-12 12:22:00,
2013-02-12 05:27:00,30.8,28.5,30.23,ENE,64,0.0,1.0,91,0.00,,,0.00,0,LWC V2.00 B727,2013-02-12 12:27:00,
2013-02-12 05:32:00,31.0,28.7,30.23,ENE,64,0.0,0.0,91,0.00,,,0.00,0,LWC V2.00 B727,2013-02-12 12:32:00,
2013-02-12 05:37:00,31.0,28.7,30.23,ENE,64,0.0,0.0,91,0.00,,,0.00,0,LWC V2.00 B727,2013-02-12 12:37:00,
2013-02-12 05:42:00,30.9,28.6,30.23,ENE,64,0.0,0.0,91,0.00,,,0.00,0,LWC V2.00 B727,2013-02-12 12:42:00,
2013-02-12 05:47:00,31.0,28.7,30.23,ENE,64,0.0,1.0,91,0.00,,,0.00,0,LWC V2.00 B727,2013-02-12 12:47:00,
2013-02-12 05:52:00,30.9,28.6,30.23,ENE,64,0.0,0.0,91,0.00,,,0.00,0,LWC V2.00 B727,2013-02-12 12:52:00,
2013-02-12 05:57:00,30.9,28.6,30.23,ENE,64,0.0,0.0,91,0.00,,,0.00,0,LWC V2.00 B727,2013-02-12 12:57:00,
2013-02-12 06:02:00,30.9,28.6,30.23,ENE,64,0.0,0.0,91,0.00,,,0.00,0,LWC V2.00 B727,2013-02-12 13:02:00,
2013-02-12 06:07:00,30.8,28.8,30.23,ENE,64,0.0,2.0,92,0.00,,,0.00,0,LWC V2.00 B727,2013-02-12 13:07:00,
2013-02-12 06:12:00,30.7,28.4,30.23,ENE,64,0.0,2.0,91,0.00,,,0.00,0,LWC V2.00 B727,2013-02-12 13:12:00,
2013-02-12 06:17:00,30.5,28.2,30.23,ENE,64,1.0,2.0,91,0.00,,,0.00,0,LWC V2.00 B727,2013-02-12 13:17:00,
2013-02-12 06:22:00,30.4,28.1,30.24,ENE,64,2.0,3.0,91,0.00,,,0.00,0,LWC V2.00 B727,2013-02-12 13:22:00,
2013-02-12 06:27:00,30.3,28.0,30.24,ENE,64,1.0,3.0,91,0.00,,,0.00,0,LWC V2.00 B727,2013-02-12 13:27:00,
2013-02-12 06:32:00,30.3,28.0,30.24,ENE,64,1.0,3.0,91,0.00,,,0.00,0,LWC V2.00 B727,2013-02-12 13:32:00,
2013-02-12 06:37:00,30.2,27.9,30.24,ENE,64,2.0,4.0,91,0.00,,,0.00,0,LWC V2.00 B727,2013-02-12 13:37:00,
2013-02-12 06:42:00,30.1,27.8,30.24,ENE,64,2.0,3.0,91,0.00,,,0.00,0,LWC V2.00 B727,2013-02-12 13:42:00,
2013-02-12 06:47:00,30.1,27.8,30.24,ENE,64,0.0,2.0,91,0.00,,,0.00,0,LWC V2.00 B727,2013-02-12 13:47:00,
2013-02-12 06:52:00,30.0,27.7,30.25,ENE,64,0.0,0.0,91,0.00,,,0.00,0,LWC V2.00 B727,2013-02-12 13:52:00,
2013-02-12 06:57:00,30.1,27.8,30.25,ENE,64,1.0,2.0,91,0.00,,,0.00,0,LWC V2.00 B727,2013-02-12 13:57:00,
2013-02-12 07:02:00,30.3,28.0,30.25,ENE,64,2.0,2.0,91,0.00,,,0.00,0,LWC V2.00 B727,2013-02-12 14:02:00,
2013-02-12 07:07:00,30.4,28.1,30.25,ENE,64,1.0,3.0,91,0.00,,,0.00,5,LWC V2.00 B727,2013-02-12 14:07:00,
2013-02-12 07:12:00,30.4,28.1,30.25,ENE,64,2.0,2.0,91,0.00,,,0.00,7,LWC V2.00 B727,2013-02-12 14:12:00,
2013-02-12 07:17:00,30.5,28.2,30.26,ENE,64,1.0,3.0,91,0.00,,,0.00,9,LWC V2.00 B727,2013-02-12 14:17:00,
2013-02-12 07:22:00,30.6,28.3,30.26,ENE,64,0.0,1.0,91,0.00,,,0.00,12,LWC V2.00 B727,2013-02-12 14:22:00,
2013-02-12 07:27:00,30.7,28.1,30.26,ENE,64,0.0,0.0,90,0.00,,,0.00,14,LWC V2.00 B727,2013-02-12 14:27:00,
2013-02-12 07:32:00,30.6,28.0,30.27,ENE,64,0.0,0.0,90,0.00,,,0.00,16,LWC V2.00 B727,2013-02-12 14:32:00,
2013-02-12 07:37:00,30.6,28.0,30.27,ENE,64,0.0,0.0,90,0.00,,,0.00,18,LWC V2.00 B727,2013-02-12 14:37:00,
2013-02-12 07:42:00,30.6,28.0,30.27,ENE,64,0.0,0.0,90,0.00,,,0.00,19,LWC V2.00 B727,2013-02-12 14:42:00,
2013-02-12 07:47:00,30.6,28.0,30.27,ENE,64,0.0,0.0,90,0.00,,,0.00,21,LWC V2.00 B727,2013-02-12 14:47:00,
2013-02-12 07:52:00,30.8,28.2,30.27,ENE,64,0.0,1.0,90,0.00,,,0.00,23,LWC V2.00 B727,2013-02-12 14:52:00,
2013-02-12 07:57:00,31.1,28.5,30.27,ENE,64,0.0,3.0,90,0.00,,,0.00,25,LWC V2.00 B727,2013-02-12 14:57:00,
2013-02-12 08:02:00,30.7,27.9,30.27,ENE,64,1.0,2.0,89,0.00,,,0.00,77,LWC V2.00 B727,2013-02-12 15:02:00,
2013-02-12 08:07:00,30.9,28.0,30.27,ENE,64,0.0,2.0,89,0.00,,,0.00,171,LWC V2.00 B727,2013-02-12 15:07:00,
2013-02-12 08:12:00,31.8,28.9,30.28,ENE,64,1.0,2.0,89,0.00,,,0.00,195,LWC V2.00 B727,2013-02-12 15:12:00,
2013-02-12 08:17:00,32.8,29.6,30.28,ENE,64,0.0,0.0,88,0.00,,,0.00,207,LWC V2.00 B727,2013-02-12 15:17:00,
2013-02-12 08:22:00,33.7,30.2,30.28,ENE,64,0.0,0.0,87,0.00,,,0.00,239,LWC V2.00 B727,2013-02-12 15:22:00,
2013-02-12 08:27:00,34.0,30.5,30.28,ENE,64,0.0,0.0,87,0.00,,,0.00,250,LWC V2.00 B727,2013-02-12 15:27:00,
2013-02-12 08:32:00,34.1,30.9,30.28,ENE,64,0.0,0.0,88,0.00,,,0.01,269,LWC V2.00 B727,2013-02-12 15:32:00,
2013-02-12 08:37:00,35.0,31.8,30.29,ENE,64,0.0,0.0,88,0.00,,,0.01,285,LWC V2.00 B727,2013-02-12 15:37:00,
2013-02-12 08:42:00,36.0,32.2,30.29,ENE,64,0.0,0.0,86,0.00,,,0.01,287,LWC V2.00 B727,2013-02-12 15:42:00,
2013-02-12 08:47:00,36.2,31.8,30.29,ENE,64,0.0,0.0,84,0.00,,,0.01,302,LWC V2.00 B727,2013-02-12 15:47:00,
2013-02-12 08:52:00,35.3,30.7,30.29,ENE,64,0.0,0.0,83,0.00,,,0.01,318,LWC V2.00 B727,2013-02-12 15:52:00,
2013-02-12 08:58:00,35.2,30.6,30.29,ENE,64,0.0,0.0,83,0.00,,,0.01,332,LWC V2.00 B727,2013-02-12 15:58:00,
2013-02-12 09:03:00,35.1,30.8,30.30,ENE,64,2.0,2.0,84,0.00,,,0.01,350,LWC V2.00 B727,2013-02-12 16:03:00,
2013-02-12 09:08:00,35.2,31.4,30.30,ENE,64,0.0,1.0,86,0.00,,,0.01,360,LWC V2.00 B727,2013-02-12 16:08:00,
2013-02-12 09:13:00,35.6,31.8,30.30,ENE,74,0.0,1.0,86,0.00,,,0.01,376,LWC V2.00 B727,2013-02-12 16:13:00,
2013-02-12 09:18:00,35.5,31.4,30.30,ENE,74,0.0,1.0,85,0.00,,,0.01,394,LWC V2.00 B727,2013-02-12 16:18:00,
2013-02-12 09:23:00,35.6,31.5,30.30,SSW,200,0.0,4.0,85,0.00,,,0.01,403,LWC V2.00 B727,2013-02-12 16:23:00,
2013-02-12 09:28:00,35.8,31.7,30.30,SSW,211,1.0,2.0,85,0.00,,,0.01,417,LWC V2.00 B727,2013-02-12 16:28:00,
2013-02-12 09:33:00,35.9,31.8,30.31,SSW,211,1.0,1.0,85,0.00,,,0.01,434,LWC V2.00 B727,2013-02-12 16:33:00,
2013-02-12 09:38:00,36.2,32.1,30.30,SSW,206,1.0,2.0,85,0.00,,,0.01,452,LWC V2.00 B727,2013-02-12 16:38:00,
2013-02-12 09:43:00,36.3,31.9,30.31,SSW,213,1.0,3.0,84,0.00,,,0.01,468,LWC V2.00 B727,2013-02-12 16:43:00,
2013-02-12 09:48:00,36.4,32.0,30.31,SSW,213,0.0,1.0,84,0.00,,,0.01,483,LWC V2.00 B727,2013-02-12 16:48:00,
2013-02-12 09:53:00,36.9,32.8,30.31,SSW,207,0.0,1.0,85,0.00,,,0.01,497,LWC V2.00 B727,2013-02-12 16:53:00,
2013-02-12 09:58:00,37.1,32.7,30.31,SSW,209,0.0,0.0,84,0.00,,,0.01,512,LWC V2.00 B727,2013-02-12 16:58:00,
2013-02-12 10:03:00,37.7,33.3,30.31,SW,214,4.0,5.0,84,0.00,,,0.01,536,LWC V2.00 B727,2013-02-12 17:03:00,
2013-02-12 10:08:00,37.8,33.4,30.31,SSW,213,3.0,4.0,84,0.00,,,0.01,554,LWC V2.00 B727,2013-02-12 17:08:00,
2013-02-12 10:13:00,38.3,33.9,30.31,SW,234,2.0,4.0,84,0.00,,,0.01,599,LWC V2.00 B727,2013-02-12 17:13:00,
2013-02-12 10:18:00,38.8,33.8,30.31,SW,217,3.0,3.0,82,0.00,,,0.01,682,LWC V2.00 B727,2013-02-12 17:18:00,
2013-02-12 10:23:00,38.6,33.9,30.31,SSW,212,4.0,4.0,83,0.00,,,0.01,207,LWC V2.00 B727,2013-02-12 17:23:00,
2013-02-12 10:28:00,38.2,34.1,30.32,SW,223,1.0,4.0,85,0.00,,,0.01,747,LWC V2.00 B727,2013-02-12 17:28:00,
2013-02-12 10:33:00,39.3,34.9,30.32,SW,235,3.0,3.0,84,0.00,,,0.01,717,LWC V2.00 B727,2013-02-12 17:33:00,
2013-02-12 10:38:00,39.2,33.9,30.32,SW,219,0.0,0.0,81,0.00,,,0.01,631,LWC V2.00 B727,2013-02-12 17:38:00,
2013-02-12 10:43:00,40.0,35.0,30.32,SSW,211,0.0,3.0,82,0.00,,,0.01,647,LWC V2.00 B727,2013-02-12 17:43:00,
2013-02-12 10:48:00,39.5,34.5,30.32,SSW,196,0.0,3.0,82,0.00,,,0.01,615,LWC V2.00 B727,2013-02-12 17:48:00,
2013-02-12 10:53:00,39.9,34.9,30.32,SSW,213,3.0,4.0,82,0.00,,,0.01,691,LWC V2.00 B727,2013-02-12 17:53:00,
2013-02-12 10:58:00,40.2,34.8,30.32,SSW,206,0.0,2.0,81,0.00,,,0.01,738,LWC V2.00 B727,2013-02-12 17:58:00,
2013-02-12 11:03:00,40.2,33.9,30.32,SW,217,4.0,6.0,78,0.00,,,0.01,188,LWC V2.00 B727,2013-02-12 18:03:00,
2013-02-12 11:08:00,39.7,33.7,30.32,SW,215,2.0,2.0,79,0.00,,,0.01,134,LWC V2.00 B727,2013-02-12 18:08:00,
2013-02-12 11:13:00,40.5,34.2,30.32,WSW,248,0.0,4.0,78,0.00,,,0.01,659,LWC V2.00 B727,2013-02-12 18:13:00,
2013-02-12 11:18:00,40.8,34.2,30.32,WSW,251,0.0,1.0,77,0.00,,,0.01,635,LWC V2.00 B727,2013-02-12 18:18:00,
2013-02-12 11:23:00,41.4,34.1,30.32,WSW,250,0.0,4.0,75,0.00,,,0.01,708,LWC V2.00 B727,2013-02-12 18:23:00,
2013-02-12 11:28:00,41.3,33.3,30.31,WSW,247,3.0,4.0,73,0.00,,,0.01,427,LWC V2.00 B727,2013-02-12 18:28:00,
2013-02-12 11:33:00,42.3,34.3,30.31,NNW,334,0.0,1.0,73,0.00,,,0.01,703,LWC V2.00 B727,2013-02-12 18:33:00,
2013-02-12 11:38:00,43.0,34.6,30.31,SW,223,3.0,3.0,72,0.00,,,0.01,719,LWC V2.00 B727,2013-02-12 18:38:00,
2013-02-12 11:43:00,42.6,34.2,30.31,SW,221,2.0,4.0,72,0.00,,,0.01,726,LWC V2.00 B727,2013-02-12 18:43:00,
2013-02-12 11:48:00,43.2,33.4,30.30,WSW,255,0.0,3.0,68,0.00,,,0.01,749,LWC V2.00 B727,2013-02-12 18:48:00,
2013-02-12 11:53:00,44.1,34.2,30.30,SW,235,3.0,4.0,68,0.00,,,0.01,779,LWC V2.00 B727,2013-02-12 18:53:00,
2013-02-12 11:58:00,44.5,35.0,30.30,NW,323,1.0,1.0,69,0.00,,,0.01,772,LWC V2.00 B727,2013-02-12 18:58:00,
2013-02-12 12:03:00,45.0,32.8,30.30,WSW,240,0.0,5.0,62,0.00,,,0.01,775,LWC V2.00 B727,2013-02-12 19:03:00,
2013-02-12 12:08:00,46.0,34.5,30.30,NW,313,0.0,4.0,64,0.00,,,0.01,814,LWC V2.00 B727,2013-02-12 19:08:00,
2013-02-12 12:13:00,45.4,33.2,30.29,SSW,211,0.0,4.0,62,0.00,,,0.01,868,LWC V2.00 B727,2013-02-12 19:13:00,
2013-02-12 12:18:00,46.6,33.9,30.29,NNE,13,5.0,5.0,61,0.00,,,0.01,904,LWC V2.00 B727,2013-02-12 19:18:00,
2013-02-12 12:23:00,45.3,31.8,30.29,NE,35,6.0,7.0,59,0.00,,,0.01,260,LWC V2.00 B727,2013-02-12 19:23:00,
2013-02-12 12:28:00,44.9,32.3,30.29,NNE,31,2.0,5.0,61,0.00,,,0.01,838,LWC V2.00 B727,2013-02-12 19:28:00,
2013-02-12 12:33:00,45.5,31.2,30.28,East,85,0.0,5.0,57,0.00,,,0.01,846,LWC V2.00 B727,2013-02-12 19:33:00,
2013-02-12 12:38:00,46.5,33.4,30.29,South,172,0.0,2.0,60,0.00,,,0.01,805,LWC V2.00 B727,2013-02-12 19:38:00,
2013-02-12 12:43:00,46.7,30.9,30.28,NW,317,3.0,3.0,54,0.00,,,0.01,814,LWC V2.00 B727,2013-02-12 19:43:00,
2013-02-12 12:48:00,47.6,28.9,30.28,WNW,285,0.0,4.0,48,0.00,,,0.01,795,LWC V2.00 B727,2013-02-12 19:48:00,
2013-02-12 12:53:00,46.2,27.6,30.28,WSW,238,1.0,3.0,48,0.00,,,0.01,784,LWC V2.00 B727,2013-02-12 19:53:00,
2013-02-12 12:58:00,46.0,27.9,30.27,SSW,198,1.0,3.0,49,0.00,,,0.01,773,LWC V2.00 B727,2013-02-12 19:58:00,
2013-02-12 13:03:00,46.0,27.9,30.27,ENE,71,5.0,5.0,49,0.00,,,0.01,761,LWC V2.00 B727,2013-02-12 20:03:00,
2013-02-12 13:08:00,46.3,27.7,30.27,East,98,0.0,5.0,48,0.00,,,0.01,761,LWC V2.00 B727,2013-02-12 20:08:00,
2013-02-12 13:13:00,46.9,25.6,30.27,NE,41,4.0,5.0,43,0.00,,,0.01,752,LWC V2.00 B727,2013-02-12 20:13:00,
2013-02-12 13:18:00,47.0,25.1,30.26,North,5,1.0,4.0,42,0.00,,,0.01,745,LWC V2.00 B727,2013-02-12 20:18:00,
2013-02-12 13:23:00,48.0,26.6,30.26,North,5,1.0,5.0,43,0.00,,,0.01,737,LWC V2.00 B727,2013-02-12 20:23:00,
2013-02-12 13:28:00,47.3,27.0,30.26,North,5,0.0,1.0,45,0.00,,,0.01,733,LWC V2.00 B727,2013-02-12 20:28:00,
2013-02-12 13:33:00,47.7,26.3,30.26,West,277,4.0,5.0,43,0.00,,,0.01,729,LWC V2.00 B727,2013-02-12 20:33:00,
2013-02-12 13:38:00,49.2,24.7,30.26,North,0,5.0,11.0,38,0.00,,,0.01,728,LWC V2.00 B727,2013-02-12 20:38:00,
2013-02-12 13:43:00,48.5,23.4,30.25,NNE,26,3.0,6.0,37,0.00,,,0.01,714,LWC V2.00 B727,2013-02-12 20:43:00,
2013-02-12 13:48:00,49.2,25.3,30.25,NNW,344,4.0,9.0,39,0.00,,,0.01,712,LWC V2.00 B727,2013-02-12 20:48:00,
2013-02-12 13:53:00,49.5,26.2,30.25,WNW,302,4.0,4.0,40,0.00,,,0.01,708,LWC V2.00 B727,2013-02-12 20:53:00,
2013-02-12 13:58:00,49.6,23.8,30.25,NE,36,3.0,9.0,36,0.00,,,0.01,701,LWC V2.00 B727,2013-02-12 20:58:00,
2013-02-12 14:03:00,49.4,24.9,30.25,NE,34,8.0,9.0,38,0.00,,,0.01,693,LWC V2.00 B727,2013-02-12 21:03:00,
2013-02-12 14:08:00,49.0,23.9,30.24,North,351,4.0,6.0,37,0.00,,,0.01,687,LWC V2.00 B727,2013-02-12 21:08:00,
2013-02-12 14:13:00,48.9,23.8,30.24,ENE,61,8.0,8.0,37,0.00,,,0.01,679,LWC V2.00 B727,2013-02-12 21:13:00,
2013-02-12 14:18:00,49.7,24.5,30.24,NNW,342,0.0,7.0,37,0.00,,,0.01,673,LWC V2.00 B727,2013-02-12 21:18:00,
2013-02-12 14:23:00,50.3,23.7,30.24,NNE,22,5.0,7.0,35,0.00,,,0.01,661,LWC V2.00 B727,2013-02-12 21:23:00,
2013-02-12 14:28:00,49.8,22.6,30.24,North,355,4.0,8.0,34,0.00,,,0.01,654,LWC V2.00 B727,2013-02-12 21:28:00,
2013-02-12 14:33:00,50.2,22.9,30.24,North,355,5.0,9.0,34,0.00,,,0.01,654,LWC V2.00 B727,2013-02-12 21:33:00,
2013-02-12 14:38:00,49.7,23.8,30.24,NNE,19,4.0,6.0,36,0.00,,,0.01,647,LWC V2.00 B727,2013-02-12 21:38:00,
2013-02-12 14:43:00,48.7,22.3,30.24,NNE,18,0.0,3.0,35,0.00,,,0.01,652,LWC V2.00 B727,2013-02-12 21:43:00,
2013-02-12 14:48:00,50.8,27.4,30.24,WSW,258,0.0,5.0,40,0.00,,,0.01,649,LWC V2.00 B727,2013-02-12 21:48:00,
2013-02-12 14:53:00,49.6,32.7,30.24,West,273,2.0,5.0,52,0.00,,,0.01,649,LWC V2.00 B727,2013-02-12 21:53:00,
2013-02-12 14:58:00,49.5,32.1,30.23,SSW,208,6.0,7.0,51,0.00,,,0.01,659,LWC V2.00 B727,2013-02-12 21:58:00,
2013-02-12 15:03:00,50.0,32.1,30.23,SW,236,2.0,5.0,50,0.00,,,0.01,612,LWC V2.00 B727,2013-02-12 22:03:00,
2013-02-12 15:08:00,51.0,31.0,30.23,WSW,238,3.0,5.0,46,0.00,,,0.01,599,LWC V2.00 B727,2013-02-12 22:08:00,
2013-02-12 15:13:00,50.5,33.5,30.23,WSW,242,4.0,9.0,52,0.00,,,0.01,591,LWC V2.00 B727,2013-02-12 22:13:00,
2013-02-12 15:18:00,49.8,32.9,30.22,SSW,203,7.0,7.0,52,0.00,,,0.01,519,LWC V2.00 B727,2013-02-12 22:18:00,
2013-02-12 15:23:00,49.0,31.7,30.22,SSW,200,6.0,8.0,51,0.00,,,0.01,529,LWC V2.00 B727,2013-02-12 22:23:00,
2013-02-12 15:28:00,48.5,31.7,30.22,SE,144,1.0,5.0,52,0.00,,,0.01,90,LWC V2.00 B727,2013-02-12 22:28:00,
2013-02-12 15:33:00,48.6,29.3,30.22,SE,142,2.0,4.0,47,0.00,,,0.01,517,LWC V2.00 B727,2013-02-12 22:33:00,
2013-02-12 15:38:00,49.2,28.8,30.22,SE,140,0.0,1.0,45,0.00,,,0.01,513,LWC V2.00 B727,2013-02-12 22:38:00,
2013-02-12 15:43:00,50.0,27.8,30.22,NNW,338,2.0,3.0,42,0.00,,,0.01,95,LWC V2.00 B727,2013-02-12 22:43:00,
2013-02-12 15:48:00,49.9,25.9,30.22,NNW,328,0.0,3.0,39,0.00,,,0.01,466,LWC V2.00 B727,2013-02-12 22:48:00,
2013-02-12 15:53:00,49.5,27.4,30.22,SW,224,0.0,0.0,42,0.00,,,0.01,111,LWC V2.00 B727,2013-02-12 22:53:00,
2013-02-12 15:58:00,49.8,27.6,30.22,NNE,27,3.0,6.0,42,0.00,,,0.01,98,LWC V2.00 B727,2013-02-12 22:58:00,
2013-02-12 16:03:00,48.7,27.2,30.22,NNE,13,4.0,5.0,43,0.00,,,0.01,441,LWC V2.00 B727,2013-02-12 23:03:00,
2013-02-12 16:08:00,48.7,28.3,30.22,NNE,26,5.0,7.0,45,0.00,,,0.01,121,LWC V2.00 B727,2013-02-12 23:08:00,
2013-02-12 16:13:00,49.0,28.6,30.21,NNE,26,3.0,5.0,45,0.00,,,0.01,100,LWC V2.00 B727,2013-02-12 23:13:00,
2013-02-12 16:18:00,48.4,28.6,30.22,NNE,15,0.0,2.0,46,0.00,,,0.01,84,LWC V2.00 B727,2013-02-12 23:18:00,
2013-02-12 16:23:00,47.9,28.1,30.22,NNE,15,1.0,2.0,46,0.00,,,0.01,76,LWC V2.00 B727,2013-02-12 23:23:00,
2013-02-12 16:28:00,47.7,27.9,30.22,NNE,13,0.0,3.0,46,0.00,,,0.01,63,LWC V2.00 B727,2013-02-12 23:28:00,
2013-02-12 16:33:00,47.6,27.3,30.22,NNE,13,0.0,1.0,45,0.00,,,0.01,63,LWC V2.00 B727,2013-02-12 23:33:00,
2013-02-12 16:38:00,47.4,27.1,30.22,NNE,13,1.0,3.0,45,0.00,,,0.01,69,LWC V2.00 B727,2013-02-12 23:38:00,
2013-02-12 16:43:00,47.4,27.7,30.22,NNE,13,0.0,0.0,46,0.00,,,0.01,69,LWC V2.00 B727,2013-02-12 23:43:00,
2013-02-12 16:48:00,47.5,27.8,30.22,NNE,13,0.0,0.0,46,0.00,,,0.01,83,LWC V2.00 B727,2013-02-12 23:48:00,
2013-02-12 16:53:00,47.4,27.7,30.21,NNE,13,0.0,3.0,46,0.00,,,0.01,77,LWC V2.00 B727,2013-02-12 23:53:00,
2013-02-12 16:58:00,47.3,27.0,30.21,NNE,22,5.0,7.0,45,0.00,,,0.01,63,LWC V2.00 B727,2013-02-12 23:58:00,
2013-02-12 17:03:00,47.0,27.8,30.21,North,0,1.0,6.0,47,0.00,,,0.01,58,LWC V2.00 B727,2013-02-13 00:03:00,
2013-02-12 17:08:00,47.3,28.1,30.21,North,0,2.0,5.0,47,0.00,,,0.01,105,LWC V2.00 B727,2013-02-13 00:08:00,
2013-02-12 17:13:00,47.4,28.7,30.21,North,0,0.0,6.0,48,0.00,,,0.01,88,LWC V2.00 B727,2013-02-13 00:13:00,
2013-02-12 17:18:00,47.5,28.3,30.21,NNW,343,1.0,6.0,47,0.00,,,0.01,104,LWC V2.00 B727,2013-02-13 00:18:00,
2013-02-12 17:23:00,47.6,28.9,30.21,NNW,346,3.0,5.0,48,0.00,,,0.01,84,LWC V2.00 B727,2013-02-13 00:23:00,
2013-02-12 17:28:00,47.4,29.2,30.21,NNW,347,2.0,5.0,49,0.00,,,0.01,70,LWC V2.00 B727,2013-02-13 00:28:00,
2013-02-12 17:33:00,47.3,28.6,30.21,North,9,1.0,5.0,48,0.00,,,0.01,56,LWC V2.00 B727,2013-02-13 00:33:00,
2013-02-12 17:38:00,47.0,28.8,30.21,North,350,4.0,8.0,49,0.00,,,0.01,42,LWC V2.00 B727,2013-02-13 00:38:00,
2013-02-12 17:43:00,46.8,29.2,30.21,North,355,0.0,5.0,50,0.00,,,0.01,30,LWC V2.00 B727,2013-02-13 00:43:00,
2013-02-12 17:48:00,46.4,29.3,30.22,NNW,346,0.0,4.0,51,0.00,,,0.01,21,LWC V2.00 B727,2013-02-13 00:48:00,
2013-02-12 17:53:00,46.0,28.9,30.22,NNW,344,0.0,5.0,51,0.00,,,0.01,14,LWC V2.00 B727,2013-02-13 00:53:00,
2013-02-12 17:58:00,45.8,29.2,30.22,North,355,2.0,4.0,52,0.00,,,0.01,12,LWC V2.00 B727,2013-02-13 00:58:00,
2013-02-12 18:03:00,45.4,29.3,30.22,North,355,2.0,3.0,53,0.00,,,0.01,9,LWC V2.00 B727,2013-02-13 01:03:00,
2013-02-12 18:08:00,45.0,28.9,30.22,North,9,0.0,4.0,53,0.00,,,0.01,5,LWC V2.00 B727,2013-02-13 01:08:00,
2013-02-12 18:13:00,44.5,28.9,30.22,North,355,2.0,5.0,54,0.00,,,0.01,0,LWC V2.00 B727,2013-02-13 01:13:00,
2013-02-12 18:18:00,44.2,29.1,30.23,North,350,1.0,4.0,55,0.00,,,0.01,0,LWC V2.00 B727,2013-02-13 01:18:00,
2013-02-12 18:23:00,43.9,29.2,30.23,North,351,0.0,5.0,56,0.00,,,0.01,0,LWC V2.00 B727,2013-02-13 01:23:00,
2013-02-12 18:28:00,43.7,29.0,30.23,North,5,3.0,4.0,56,0.00,,,0.01,0,LWC V2.00 B727,2013-02-13 01:28:00,
2013-02-12 18:33:00,43.7,29.0,30.23,North,0,2.0,5.0,56,0.00,,,0.01,0,LWC V2.00 B727,2013-02-13 01:33:00,
2013-02-12 18:38:00,43.2,29.0,30.23,NNE,18,2.0,3.0,57,0.00,,,0.01,0,LWC V2.00 B727,2013-02-13 01:38:00,
2013-02-12 18:43:00,42.9,29.2,30.23,NE,42,3.0,3.0,58,0.00,,,0.01,0,LWC V2.00 B727,2013-02-13 01:43:00,
2013-02-12 18:48:00,42.4,29.1,30.23,NNE,30,3.0,5.0,59,0.00,,,0.01,0,LWC V2.00 B727,2013-02-13 01:48:00,
2013-02-12 18:53:00,42.1,29.2,30.24,NE,42,5.0,6.0,60,0.00,,,0.01,0,LWC V2.00 B727,2013-02-13 01:53:00,
2013-02-12 18:58:00,42.3,29.0,30.24,NE,39,1.0,5.0,59,0.00,,,0.01,0,LWC V2.00 B727,2013-02-13 01:58:00,
2013-02-12 19:03:00,42.6,28.9,30.24,NE,54,5.0,8.0,58,0.00,,,0.01,0,LWC V2.00 B727,2013-02-13 02:03:00,
2013-02-12 19:08:00,42.9,28.7,30.24,NNE,32,6.0,6.0,57,0.00,,,0.01,0,LWC V2.00 B727,2013-02-13 02:08:00,
2013-02-12 19:13:00,43.1,28.5,30.24,NE,41,4.0,7.0,56,0.00,,,0.01,0,LWC V2.00 B727,2013-02-13 02:13:00,
2013-02-12 19:18:00,43.0,28.4,30.24,NE,41,4.0,7.0,56,0.00,,,0.01,0,LWC V2.00 B727,2013-02-13 02:18:00,
2013-02-12 19:23:00,42.8,28.2,30.24,NE,38,3.0,7.0,56,0.00,,,0.01,0,LWC V2.00 B727,2013-02-13 02:23:00,
2013-02-12 19:28:00,42.7,28.1,30.24,NE,43,4.0,6.0,56,0.00,,,0.01,0,LWC V2.00 B727,2013-02-13 02:28:00,
2013-02-12 19:33:00,42.5,27.9,30.24,NNE,18,1.0,5.0,56,0.00,,,0.01,0,LWC V2.00 B727,2013-02-13 02:33:00,
2013-02-12 19:38:00,42.4,27.8,30.25,NE,38,4.0,5.0,56,0.00,,,0.01,0,LWC V2.00 B727,2013-02-13 02:38:00,
2013-02-12 19:43:00,42.2,27.6,30.25,North,5,2.0,8.0,56,0.00,,,0.01,0,LWC V2.00 B727,2013-02-13 02:43:00,
2013-02-12 19:48:00,42.2,27.6,30.25,NNE,31,3.0,5.0,56,0.00,,,0.01,0,LWC V2.00 B727,2013-02-13 02:48:00,
2013-02-12 19:53:00,41.8,27.3,30.25,North,5,5.0,7.0,56,0.00,,,0.01,0,LWC V2.00 B727,2013-02-13 02:53:00,
2013-02-12 19:58:00,41.9,27.4,30.25,NNE,28,4.0,5.0,56,0.00,,,0.01,0,LWC V2.00 B727,2013-02-13 02:58:00,
2013-02-12 20:03:00,41.6,27.5,30.25,NNE,30,3.0,6.0,57,0.00,,,0.01,0,LWC V2.00 B727,2013-02-13 03:03:00,
2013-02-12 20:08:00,41.4,27.3,30.25,NNE,30,3.0,7.0,57,0.00,,,0.01,0,LWC V2.00 B727,2013-02-13 03:08:00,
2013-02-12 20:13:00,41.4,27.3,30.25,NNE,29,3.0,6.0,57,0.00,,,0.01,0,LWC V2.00 B727,2013-02-13 03:13:00,
2013-02-12 20:18:00,41.2,27.1,30.25,NNE,28,4.0,8.0,57,0.00,,,0.01,0,LWC V2.00 B727,2013-02-13 03:18:00,
2013-02-12 20:23:00,41.1,27.0,30.25,NE,46,2.0,5.0,57,0.00,,,0.01,0,LWC V2.00 B727,2013-02-13 03:23:00,
2013-02-12 20:28:00,41.1,27.0,30.26,NNE,13,8.0,8.0,57,0.00,,,0.01,0,LWC V2.00 B727,2013-02-13 03:28:00,
2013-02-12 20:33:00,41.1,27.0,30.26,NNE,31,4.0,6.0,57,0.00,,,0.01,0,LWC V2.00 B727,2013-02-13 03:33:00,
2013-02-12 20:38:00,41.1,27.0,30.26,NNE,30,1.0,3.0,57,0.00,,,0.01,0,LWC V2.00 B727,2013-02-13 03:38:00,
2013-02-12 20:43:00,40.7,26.7,30.26,NNE,30,1.0,3.0,57,0.00,,,0.01,0,LWC V2.00 B727,2013-02-13 03:43:00,
2013-02-12 20:48:00,40.6,26.6,30.26,NNE,31,2.0,3.0,57,0.00,,,0.01,0,LWC V2.00 B727,2013-02-13 03:48:00,
2013-02-12 20:53:00,40.4,26.4,30.25,NNE,31,2.0,4.0,57,0.00,,,0.01,0,LWC V2.00 B727,2013-02-13 03:53:00,
2013-02-12 20:58:00,40.3,26.7,30.26,NNE,31,0.0,2.0,58,0.00,,,0.01,0,LWC V2.00 B727,2013-02-13 03:58:00,
2013-02-12 21:03:00,40.0,26.8,30.25,NNE,31,1.0,1.0,59,0.00,,,0.01,0,LWC V2.00 B727,2013-02-13 04:03:00,
2013-02-12 21:08:00,39.8,27.1,30.26,NNE,31,0.0,1.0,60,0.00,,,0.01,0,LWC V2.00 B727,2013-02-13 04:08:00,
2013-02-12 21:13:00,39.1,27.2,30.26,NNE,31,0.0,1.0,62,0.00,,,0.01,0,LWC V2.00 B727,2013-02-13 04:13:00,
2013-02-12 21:18:00,38.8,27.3,30.26,NNE,31,0.0,0.0,63,0.00,,,0.01,0,LWC V2.00 B727,2013-02-13 04:18:00,
2013-02-12 21:23:00,38.8,27.7,30.26,NNE,31,0.0,1.0,64,0.00,,,0.01,0,LWC V2.00 B727,2013-02-13 04:23:00,
2013-02-12 21:28:00,38.4,27.3,30.26,NNE,31,0.0,2.0,64,0.00,,,0.01,0,LWC V2.00 B727,2013-02-13 04:28:00,
2013-02-12 21:33:00,37.9,27.6,30.26,NNE,31,0.0,1.0,66,0.00,,,0.01,0,LWC V2.00 B727,2013-02-13 04:33:00,
2013-02-12 21:38:00,37.9,27.6,30.26,NNE,31,0.0,1.0,66,0.00,,,0.01,0,LWC V2.00 B727,2013-02-13 04:38:00,
2013-02-12 21:43:00,38.1,27.4,30.26,NNE,31,2.0,2.0,65,0.00,,,0.01,0,LWC V2.00 B727,2013-02-13 04:43:00,
2013-02-12 21:48:00,37.7,27.7,30.26,NNE,33,2.0,3.0,67,0.00,,,0.01,0,LWC V2.00 B727,2013-02-13 04:48:00,
2013-02-12 21:53:00,37.3,27.4,30.26,NNE,33,2.0,3.0,67,0.00,,,0.01,0,LWC V2.00 B727,2013-02-13 04:53:00,
2013-02-12 21:58:00,37.5,27.6,30.26,NNE,33,0.0,2.0,67,0.00,,,0.01,0,LWC V2.00 B727,2013-02-13 04:58:00,
2013-02-12 22:00:00,37.6,27.6,30.26,NNE,33,0.0,2.0,67,0.00,,,0.01,0,LWC V2.00 B727,2013-02-13 05:00:00,
2013-02-12 22:05:00,36.9,27.3,30.26,NNE,33,2.0,3.0,68,0.00,,,0.01,0,LWC V2.00 B727,2013-02-13 05:05:00,
2013-02-12 22:10:00,36.5,27.3,30.26,NNE,33,0.0,1.0,69,0.00,,,0.01,0,LWC V2.00 B727,2013-02-13 05:10:00,
2013-02-12 22:15:00,36.2,27.4,30.26,NNE,33,1.0,2.0,70,0.00,,,0.01,0,LWC V2.00 B727,2013-02-13 05:15:00,
2013-02-12 22:20:00,36.6,27.4,30.26,NNE,33,4.0,5.0,69,0.00,,,0.01,0,LWC V2.00 B727,2013-02-13 05:20:00,
2013-02-12 22:25:00,37.4,27.5,30.26,NNE,26,6.0,7.0,67,0.00,,,0.01,0,LWC V2.00 B727,2013-02-13 05:25:00,
2013-02-12 22:30:00,38.3,27.6,30.26,NNE,22,6.0,7.0,65,0.00,,,0.01,0,LWC V2.00 B727,2013-02-13 05:30:00,
2013-02-12 22:35:00,38.9,27.0,30.26,NNE,26,5.0,7.0,62,0.00,,,0.01,0,LWC V2.00 B727,2013-02-13 05:35:00,
2013-02-12 22:40:00,39.2,26.5,30.25,NNE,28,8.0,9.0,60,0.00,,,0.01,0,LWC V2.00 B727,2013-02-13 05:40:00,
2013-02-12 22:45:00,39.7,26.1,30.25,NNE,16,7.0,9.0,58,0.00,,,0.01,0,LWC V2.00 B727,2013-02-13 05:45:00,
2013-02-12 22:50:00,40.0,26.0,30.25,NNE,24,7.0,9.0,57,0.00,,,0.01,0,LWC V2.00 B727,2013-02-13 05:50:00,
2013-02-12 22:55:00,40.1,25.7,30.25,NNE,21,6.0,10.0,56,0.00,,,0.01,0,LWC V2.00 B727,2013-02-13 05:55:00,
2013-02-12 23:00:00,40.4,25.5,30.25,NE,42,11.0,12.0,55,0.00,,,0.01,0,LWC V2.00 B727,2013-02-13 06:00:00,
2013-02-12 23:05:00,40.7,25.4,30.24,NNE,23,10.0,10.0,54,0.00,,,0.01,0,LWC V2.00 B727,2013-02-13 06:05:00,
2013-02-12 23:10:00,41.0,25.2,30.24,NNE,17,7.0,8.0,53,0.00,,,0.01,0,LWC V2.00 B727,2013-02-13 06:10:00,
2013-02-12 23:15:00,41.1,25.3,30.24,NE,35,6.0,11.0,53,0.00,,,0.01,0,LWC V2.00 B727,2013-02-13 06:15:00,
2013-02-12 23:20:00,41.1,24.8,30.24,NNE,15,8.0,11.0,52,0.00,,,0.01,0,LWC V2.00 B727,2013-02-13 06:20:00,
2013-02-12 23:25:00,41.1,24.8,30.24,NNE,17,7.0,10.0,52,0.00,,,0.01,0,LWC V2.00 B727,2013-02-13 06:25:00,
2013-02-12 23:30:00,41.0,25.2,30.24,NNE,13,6.0,11.0,53,0.00,,,0.01,0,LWC V2.00 B727,2013-02-13 06:30:00,
2013-02-12 23:35:00,40.6,24.8,30.24,NNE,23,7.0,9.0,53,0.00,,,0.01,0,LWC V2.00 B727,2013-02-13 06:35:00,
2013-02-12 23:40:00,40.5,24.7,30.23,NNE,18,9.0,10.0,53,0.00,,,0.01,0,LWC V2.00 B727,2013-02-13 06:40:00,
2013-02-12 23:45:00,40.6,24.8,30.23,NNE,30,6.0,9.0,53,0.00,,,0.01,0,LWC V2.00 B727,2013-02-13 06:45:00,
2013-02-12 23:50:00,40.4,24.6,30.23,NNE,13,4.0,9.0,53,0.00,,,0.01,0,LWC V2.00 B727,2013-02-13 06:50:00,
2013-02-12 23:55:00,40.3,24.5,30.23,North,5,7.0,9.0,53,0.00,,,0.01,0,LWC V2.00 B727,2013-02-13 06:55:00,